Ladson, South Carolina
Current Conditions -  °F | °C
As of 9:56 PM on Friday 19 Dec 2014 (Local Time) from KCHS Reporting Station
Broken Clouds Broken Clouds  
Wind Chill: 50°   Ceiling: 16000
Heat Index: 50°   Visibility: 10mi
Dew Point: 43°   Wind: 0mph
Humidity: 77%   Direction: NA
Pressure: 30.15"   Gusts: NA
Location:  33.01°N, 80.13°W
Report Text: KCHS 200256Z 00000KT 10SM FEW100 BKN160 10/06 A3015 RMK AO2 SLP210 T01000061 53008
Loading
Personal Weather Stations






























Interactive Weather Map New forecast layout! Learn more

10-Day Weather Forecast

Advertisements
Track Severe Weather on mobile